sensor_id;sensor_type;location;lat;lon;timestamp;P1;durP1;ratioP1;P2;durP2;ratioP2
11604;SDS011;5858;43.076;25.626;2023-09-30T00:02:19;17.55;;;8.52;;
11604;SDS011;5858;43.076;25.626;2023-09-30T00:04:47;12.88;;;8.60;;
11604;SDS011;5858;43.076;25.626;2023-09-30T00:07:13;21.23;;;12.98;;
11604;SDS011;5858;43.076;25.626;2023-09-30T00:09:40;27.65;;;12.32;;
11604;SDS011;5858;43.076;25.626;2023-09-30T00:12:07;17.10;;;12.05;;
11604;SDS011;5858;43.076;25.626;2023-09-30T00:14:34;18.52;;;11.38;;
11604;SDS011;5858;43.076;25.626;2023-09-30T00:17:02;20.33;;;10.52;;
11604;SDS011;5858;43.076;25.626;2023-09-30T00:19:29;20.23;;;11.55;;
11604;SDS011;5858;43.076;25.626;2023-09-30T00:21:59;14.68;;;9.95;;
11604;SDS011;5858;43.076;25.626;2023-09-30T00:24:26;14.60;;;8.98;;
11604;SDS011;5858;43.076;25.626;2023-09-30T00:26:54;12.60;;;9.43;;
11604;SDS011;5858;43.076;25.626;2023-09-30T00:29:21;15.55;;;10.00;;
11604;SDS011;5858;43.076;25.626;2023-09-30T00:31:48;16.02;;;10.77;;
11604;SDS011;5858;43.076;25.626;2023-09-30T00:34:15;12.93;;;9.40;;
11604;SDS011;5858;43.076;25.626;2023-09-30T00:36:45;12.50;;;9.05;;
11604;SDS011;5858;43.076;25.626;2023-09-30T00:39:13;19.13;;;11.90;;
11604;SDS011;5858;43.076;25.626;2023-09-30T00:41:40;14.80;;;9.82;;
11604;SDS011;5858;43.076;25.626;2023-09-30T00:44:07;10.35;;;8.23;;
11604;SDS011;5858;43.076;25.626;2023-09-30T00:46:35;15.67;;;8.40;;
11604;SDS011;5858;43.076;25.626;2023-09-30T00:49:03;10.17;;;7.43;;
11604;SDS011;5858;43.076;25.626;2023-09-30T00:51:30;13.63;;;7.85;;
11604;SDS011;5858;43.076;25.626;2023-09-30T00:53:58;18.67;;;7.37;;
11604;SDS011;5858;43.076;25.626;2023-09-30T00:56:28;15.97;;;9.10;;
11604;SDS011;5858;43.076;25.626;2023-09-30T00:58:57;13.43;;;9.43;;
11604;SDS011;5858;43.076;25.626;2023-09-30T01:01:25;20.77;;;9.73;;
11604;SDS011;5858;43.076;25.626;2023-09-30T01:03:52;13.37;;;10.27;;
11604;SDS011;5858;43.076;25.626;2023-09-30T01:06:19;13.77;;;9.50;;
11604;SDS011;5858;43.076;25.626;2023-09-30T01:08:46;12.82;;;9.13;;
11604;SDS011;5858;43.076;25.626;2023-09-30T01:11:13;16.15;;;9.45;;
11604;SDS011;5858;43.076;25.626;2023-09-30T01:13:42;15.40;;;9.18;;
11604;SDS011;5858;43.076;25.626;2023-09-30T01:16:10;13.50;;;8.80;;
11604;SDS011;5858;43.076;25.626;2023-09-30T01:18:37;15.93;;;9.48;;
11604;SDS011;5858;43.076;25.626;2023-09-30T01:21:05;13.52;;;9.00;;
11604;SDS011;5858;43.076;25.626;2023-09-30T01:23:35;16.08;;;9.50;;
11604;SDS011;5858;43.076;25.626;2023-09-30T01:26:02;21.87;;;10.03;;
11604;SDS011;5858;43.076;25.626;2023-09-30T01:28:30;13.98;;;9.93;;
11604;SDS011;5858;43.076;25.626;2023-09-30T01:30:57;17.42;;;9.98;;
11604;SDS011;5858;43.076;25.626;2023-09-30T01:33:24;15.37;;;10.40;;
11604;SDS011;5858;43.076;25.626;2023-09-30T01:35:52;15.77;;;9.87;;
11604;SDS011;5858;43.076;25.626;2023-09-30T01:38:19;16.67;;;11.00;;
11604;SDS011;5858;43.076;25.626;2023-09-30T01:40:48;13.90;;;10.40;;
11604;SDS011;5858;43.076;25.626;2023-09-30T01:43:15;14.17;;;9.87;;
11604;SDS011;5858;43.076;25.626;2023-09-30T01:45:42;14.70;;;9.57;;
11604;SDS011;5858;43.076;25.626;2023-09-30T01:48:09;15.05;;;8.70;;
11604;SDS011;5858;43.076;25.626;2023-09-30T01:50:37;10.23;;;8.63;;
11604;SDS011;5858;43.076;25.626;2023-09-30T01:53:05;12.10;;;8.67;;
11604;SDS011;5858;43.076;25.626;2023-09-30T01:55:34;13.63;;;9.17;;
11604;SDS011;5858;43.076;25.626;2023-09-30T01:58:02;23.90;;;9.40;;
11604;SDS011;5858;43.076;25.626;2023-09-30T02:00:30;12.23;;;7.75;;
11604;SDS011;5858;43.076;25.626;2023-09-30T02:02:57;16.30;;;9.60;;
11604;SDS011;5858;43.076;25.626;2023-09-30T02:05:24;14.50;;;9.57;;
11604;SDS011;5858;43.076;25.626;2023-09-30T02:07:51;16.60;;;9.27;;
11604;SDS011;5858;43.076;25.626;2023-09-30T02:10:18;14.20;;;9.17;;
11604;SDS011;5858;43.076;25.626;2023-09-30T02:12:45;14.17;;;9.60;;
11604;SDS011;5858;43.076;25.626;2023-09-30T02:15:14;15.77;;;10.37;;
11604;SDS011;5858;43.076;25.626;2023-09-30T02:17:41;20.47;;;10.17;;
11604;SDS011;5858;43.076;25.626;2023-09-30T02:20:11;14.50;;;10.00;;
11604;SDS011;5858;43.076;25.626;2023-09-30T02:22:41;15.73;;;11.20;;
11604;SDS011;5858;43.076;25.626;2023-09-30T02:25:08;15.83;;;10.73;;
11604;SDS011;5858;43.076;25.626;2023-09-30T02:27:37;17.30;;;10.70;;
11604;SDS011;5858;43.076;25.626;2023-09-30T02:30:07;19.93;;;11.37;;
11604;SDS011;5858;43.076;25.626;2023-09-30T02:32:36;14.87;;;11.40;;
11604;SDS011;5858;43.076;25.626;2023-09-30T02:35:04;19.80;;;10.73;;
11604;SDS011;5858;43.076;25.626;2023-09-30T02:37:31;18.17;;;11.77;;
11604;SDS011;5858;43.076;25.626;2023-09-30T02:40:00;14.07;;;10.70;;
11604;SDS011;5858;43.076;25.626;2023-09-30T02:42:29;15.20;;;10.77;;
11604;SDS011;5858;43.076;25.626;2023-09-30T02:44:56;17.80;;;11.07;;
11604;SDS011;5858;43.076;25.626;2023-09-30T02:47:25;14.57;;;11.17;;
11604;SDS011;5858;43.076;25.626;2023-09-30T02:49:53;15.70;;;10.00;;
11604;SDS011;5858;43.076;25.626;2023-09-30T02:52:21;16.23;;;11.07;;
11604;SDS011;5858;43.076;25.626;2023-09-30T02:54:48;14.70;;;10.50;;
11604;SDS011;5858;43.076;25.626;2023-09-30T02:57:15;16.47;;;11.33;;
11604;SDS011;5858;43.076;25.626;2023-09-30T02:59:42;13.50;;;10.33;;
11604;SDS011;5858;43.076;25.626;2023-09-30T03:02:09;13.07;;;11.07;;
11604;SDS011;5858;43.076;25.626;2023-09-30T03:04:36;14.87;;;11.50;;
11604;SDS011;5858;43.076;25.626;2023-09-30T03:07:04;18.30;;;12.50;;
11604;SDS011;5858;43.076;25.626;2023-09-30T03:09:32;14.17;;;12.23;;
11604;SDS011;5858;43.076;25.626;2023-09-30T03:11:59;16.73;;;12.03;;
11604;SDS011;5858;43.076;25.626;2023-09-30T03:14:27;18.43;;;12.03;;
11604;SDS011;5858;43.076;25.626;2023-09-30T03:16:56;18.70;;;12.27;;
11604;SDS011;5858;43.076;25.626;2023-09-30T03:19:23;15.23;;;11.30;;
11604;SDS011;5858;43.076;25.626;2023-09-30T03:21:49;16.23;;;11.77;;
11604;SDS011;5858;43.076;25.626;2023-09-30T03:24:18;16.10;;;11.97;;
11604;SDS011;5858;43.076;25.626;2023-09-30T03:26:46;20.67;;;13.13;;
11604;SDS011;5858;43.076;25.626;2023-09-30T03:29:13;22.97;;;14.00;;
11604;SDS011;5858;43.076;25.626;2023-09-30T03:31:40;20.40;;;13.83;;
11604;SDS011;5858;43.076;25.626;2023-09-30T03:34:06;19.13;;;14.03;;
11604;SDS011;5858;43.076;25.626;2023-09-30T03:36:33;23.33;;;15.43;;
11604;SDS011;5858;43.076;25.626;2023-09-30T03:39:00;20.50;;;15.57;;
11604;SDS011;5858;43.076;25.626;2023-09-30T03:41:33;22.17;;;15.13;;
11604;SDS011;5858;43.076;25.626;2023-09-30T03:44:02;26.30;;;15.00;;
11604;SDS011;5858;43.076;25.626;2023-09-30T03:46:29;23.17;;;16.07;;
11604;SDS011;5858;43.076;25.626;2023-09-30T03:48:56;28.93;;;16.80;;
11604;SDS011;5858;43.076;25.626;2023-09-30T03:51:24;23.90;;;16.27;;
11604;SDS011;5858;43.076;25.626;2023-09-30T03:53:51;25.87;;;17.33;;
11604;SDS011;5858;43.076;25.626;2023-09-30T03:56:18;22.50;;;15.73;;
11604;SDS011;5858;43.076;25.626;2023-09-30T03:58:48;25.53;;;18.33;;
11604;SDS011;5858;43.076;25.626;2023-09-30T04:01:16;25.93;;;18.10;;
11604;SDS011;5858;43.076;25.626;2023-09-30T04:03:44;27.00;;;18.23;;
11604;SDS011;5858;43.076;25.626;2023-09-30T04:06:11;28.90;;;19.53;;
11604;SDS011;5858;43.076;25.626;2023-09-30T04:08:38;27.63;;;19.47;;
11604;SDS011;5858;43.076;25.626;2023-09-30T04:11:05;35.30;;;21.77;;
11604;SDS011;5858;43.076;25.626;2023-09-30T04:13:32;34.93;;;21.83;;
11604;SDS011;5858;43.076;25.626;2023-09-30T04:16:01;42.00;;;25.80;;
11604;SDS011;5858;43.076;25.626;2023-09-30T04:18:28;36.50;;;24.67;;
11604;SDS011;5858;43.076;25.626;2023-09-30T04:20:55;29.80;;;22.63;;
11604;SDS011;5858;43.076;25.626;2023-09-30T04:23:22;37.60;;;23.53;;
11604;SDS011;5858;43.076;25.626;2023-09-30T04:25:49;36.40;;;22.33;;
11604;SDS011;5858;43.076;25.626;2023-09-30T04:28:16;35.97;;;22.83;;
11604;SDS011;5858;43.076;25.626;2023-09-30T04:30:46;29.03;;;20.10;;
11604;SDS011;5858;43.076;25.626;2023-09-30T04:33:15;29.07;;;19.47;;
11604;SDS011;5858;43.076;25.626;2023-09-30T04:35:43;26.40;;;16.90;;
11604;SDS011;5858;43.076;25.626;2023-09-30T04:38:10;28.87;;;16.47;;
11604;SDS011;5858;43.076;25.626;2023-09-30T04:40:38;28.00;;;17.10;;
11604;SDS011;5858;43.076;25.626;2023-09-30T04:43:05;23.63;;;13.97;;
11604;SDS011;5858;43.076;25.626;2023-09-30T04:45:32;24.23;;;15.20;;
11604;SDS011;5858;43.076;25.626;2023-09-30T04:47:59;20.70;;;14.07;;
11604;SDS011;5858;43.076;25.626;2023-09-30T04:50:28;23.93;;;15.37;;
11604;SDS011;5858;43.076;25.626;2023-09-30T04:52:55;23.67;;;15.87;;
11604;SDS011;5858;43.076;25.626;2023-09-30T04:55:23;20.93;;;14.40;;
11604;SDS011;5858;43.076;25.626;2023-09-30T04:57:52;21.13;;;15.17;;
11604;SDS011;5858;43.076;25.626;2023-09-30T05:00:19;27.27;;;15.30;;
11604;SDS011;5858;43.076;25.626;2023-09-30T05:02:51;21.73;;;13.60;;
11604;SDS011;5858;43.076;25.626;2023-09-30T05:05:19;25.20;;;13.00;;
11604;SDS011;5858;43.076;25.626;2023-09-30T05:07:47;20.33;;;12.60;;
11604;SDS011;5858;43.076;25.626;2023-09-30T05:10:14;17.23;;;11.97;;
11604;SDS011;5858;43.076;25.626;2023-09-30T05:12:41;18.80;;;11.77;;
11604;SDS011;5858;43.076;25.626;2023-09-30T05:15:10;19.90;;;11.83;;
11604;SDS011;5858;43.076;25.626;2023-09-30T05:17:38;19.20;;;13.13;;
11604;SDS011;5858;43.076;25.626;2023-09-30T05:20:05;23.50;;;14.97;;
11604;SDS011;5858;43.076;25.626;2023-09-30T05:22:33;24.87;;;15.80;;
11604;SDS011;5858;43.076;25.626;2023-09-30T05:25:01;23.23;;;15.13;;
11604;SDS011;5858;43.076;25.626;2023-09-30T05:27:28;24.23;;;15.27;;
11604;SDS011;5858;43.076;25.626;2023-09-30T05:29:55;30.33;;;17.03;;
11604;SDS011;5858;43.076;25.626;2023-09-30T05:32:22;26.95;;;16.00;;
11604;SDS011;5858;43.076;25.626;2023-09-30T05:34:48;25.83;;;15.52;;
11604;SDS011;5858;43.076;25.626;2023-09-30T05:37:15;24.88;;;14.07;;
11604;SDS011;5858;43.076;25.626;2023-09-30T05:39:42;33.75;;;13.85;;
11604;SDS011;5858;43.076;25.626;2023-09-30T05:42:11;18.77;;;13.45;;
11604;SDS011;5858;43.076;25.626;2023-09-30T05:44:38;12.75;;;8.30;;
11604;SDS011;5858;43.076;25.626;2023-09-30T05:47:05;8.55;;;6.72;;
11604;SDS011;5858;43.076;25.626;2023-09-30T05:49:32;12.20;;;7.53;;
11604;SDS011;5858;43.076;25.626;2023-09-30T05:51:59;12.07;;;7.35;;
11604;SDS011;5858;43.076;25.626;2023-09-30T05:54:25;14.80;;;6.78;;
11604;SDS011;5858;43.076;25.626;2023-09-30T05:56:53;11.55;;;7.45;;
11604;SDS011;5858;43.076;25.626;2023-09-30T05:59:22;11.55;;;6.75;;
11604;SDS011;5858;43.076;25.626;2023-09-30T06:01:51;12.90;;;7.75;;
11604;SDS011;5858;43.076;25.626;2023-09-30T06:04:18;10.02;;;6.93;;
11604;SDS011;5858;43.076;25.626;2023-09-30T06:06:46;16.77;;;7.75;;
11604;SDS011;5858;43.076;25.626;2023-09-30T06:09:13;11.65;;;7.78;;
11604;SDS011;5858;43.076;25.626;2023-09-30T06:11:40;15.00;;;7.45;;
11604;SDS011;5858;43.076;25.626;2023-09-30T06:14:07;16.40;;;6.60;;
11604;SDS011;5858;43.076;25.626;2023-09-30T06:16:35;9.68;;;7.25;;
11604;SDS011;5858;43.076;25.626;2023-09-30T06:19:02;19.35;;;7.47;;
11604;SDS011;5858;43.076;25.626;2023-09-30T06:21:29;13.07;;;6.80;;
11604;SDS011;5858;43.076;25.626;2023-09-30T06:23:59;15.45;;;7.75;;
11604;SDS011;5858;43.076;25.626;2023-09-30T06:26:26;10.30;;;7.22;;
11604;SDS011;5858;43.076;25.626;2023-09-30T06:28:54;15.90;;;8.32;;
11604;SDS011;5858;43.076;25.626;2023-09-30T06:31:21;11.90;;;7.75;;
11604;SDS011;5858;43.076;25.626;2023-09-30T06:33:51;7.95;;;7.15;;
11604;SDS011;5858;43.076;25.626;2023-09-30T06:36:17;13.32;;;7.05;;
11604;SDS011;5858;43.076;25.626;2023-09-30T06:38:46;13.55;;;6.45;;
11604;SDS011;5858;43.076;25.626;2023-09-30T06:41:15;20.05;;;8.75;;
11604;SDS011;5858;43.076;25.626;2023-09-30T06:43:43;11.57;;;8.32;;
11604;SDS011;5858;43.076;25.626;2023-09-30T06:46:10;13.75;;;7.95;;
11604;SDS011;5858;43.076;25.626;2023-09-30T06:48:38;13.90;;;9.07;;
11604;SDS011;5858;43.076;25.626;2023-09-30T06:51:07;11.57;;;8.20;;
11604;SDS011;5858;43.076;25.626;2023-09-30T06:53:34;17.55;;;8.10;;
11604;SDS011;5858;43.076;25.626;2023-09-30T06:56:04;16.77;;;9.25;;
11604;SDS011;5858;43.076;25.626;2023-09-30T06:58:31;16.40;;;8.43;;
11604;SDS011;5858;43.076;25.626;2023-09-30T07:00:58;16.25;;;8.45;;
11604;SDS011;5858;43.076;25.626;2023-09-30T07:03:25;12.23;;;7.68;;
11604;SDS011;5858;43.076;25.626;2023-09-30T07:05:52;14.07;;;8.15;;
11604;SDS011;5858;43.076;25.626;2023-09-30T07:08:20;16.60;;;8.30;;
11604;SDS011;5858;43.076;25.626;2023-09-30T07:10:47;15.48;;;7.70;;
11604;SDS011;5858;43.076;25.626;2023-09-30T07:13:15;11.85;;;7.25;;
11604;SDS011;5858;43.076;25.626;2023-09-30T07:15:43;9.80;;;6.97;;
11604;SDS011;5858;43.076;25.626;2023-09-30T07:18:10;14.27;;;6.72;;
11604;SDS011;5858;43.076;25.626;2023-09-30T07:20:38;10.85;;;7.57;;
11604;SDS011;5858;43.076;25.626;2023-09-30T07:23:04;9.82;;;7.35;;
11604;SDS011;5858;43.076;25.626;2023-09-30T07:25:33;11.07;;;7.05;;
11604;SDS011;5858;43.076;25.626;2023-09-30T07:28:00;17.30;;;6.72;;
11604;SDS011;5858;43.076;25.626;2023-09-30T07:30:27;11.55;;;6.47;;
11604;SDS011;5858;43.076;25.626;2023-09-30T07:32:54;9.65;;;7.03;;
11604;SDS011;5858;43.076;25.626;2023-09-30T07:35:21;16.65;;;8.25;;
11604;SDS011;5858;43.076;25.626;2023-09-30T07:37:48;16.85;;;6.88;;
11604;SDS011;5858;43.076;25.626;2023-09-30T07:40:18;12.57;;;7.07;;
11604;SDS011;5858;43.076;25.626;2023-09-30T07:42:47;14.05;;;7.43;;
11604;SDS011;5858;43.076;25.626;2023-09-30T07:45:15;9.90;;;7.55;;
11604;SDS011;5858;43.076;25.626;2023-09-30T07:47:42;12.00;;;7.45;;
11604;SDS011;5858;43.076;25.626;2023-09-30T07:50:11;12.05;;;7.03;;
11604;SDS011;5858;43.076;25.626;2023-09-30T07:52:38;13.25;;;7.80;;
11604;SDS011;5858;43.076;25.626;2023-09-30T07:55:06;9.88;;;6.93;;
11604;SDS011;5858;43.076;25.626;2023-09-30T07:57:34;12.18;;;7.50;;
11604;SDS011;5858;43.076;25.626;2023-09-30T08:00:03;14.48;;;7.22;;
11604;SDS011;5858;43.076;25.626;2023-09-30T08:02:34;15.05;;;7.03;;
11604;SDS011;5858;43.076;25.626;2023-09-30T08:05:01;12.30;;;7.03;;
11604;SDS011;5858;43.076;25.626;2023-09-30T08:07:29;16.63;;;7.72;;
11604;SDS011;5858;43.076;25.626;2023-09-30T08:09:55;12.77;;;7.20;;
11604;SDS011;5858;43.076;25.626;2023-09-30T08:12:23;13.68;;;6.55;;
11604;SDS011;5858;43.076;25.626;2023-09-30T08:14:50;11.85;;;5.97;;
11604;SDS011;5858;43.076;25.626;2023-09-30T08:17:19;10.40;;;5.45;;
11604;SDS011;5858;43.076;25.626;2023-09-30T08:19:46;10.07;;;5.40;;
11604;SDS011;5858;43.076;25.626;2023-09-30T08:22:13;10.45;;;4.93;;
11604;SDS011;5858;43.076;25.626;2023-09-30T08:24:39;10.85;;;5.50;;
11604;SDS011;5858;43.076;25.626;2023-09-30T08:27:07;8.85;;;5.10;;
11604;SDS011;5858;43.076;25.626;2023-09-30T08:29:34;8.98;;;5.45;;
11604;SDS011;5858;43.076;25.626;2023-09-30T08:32:02;9.02;;;4.90;;
11604;SDS011;5858;43.076;25.626;2023-09-30T08:34:30;14.05;;;4.60;;
11604;SDS011;5858;43.076;25.626;2023-09-30T08:36:58;10.02;;;4.85;;
11604;SDS011;5858;43.076;25.626;2023-09-30T08:39:26;10.43;;;5.45;;
11604;SDS011;5858;43.076;25.626;2023-09-30T08:41:55;9.73;;;4.55;;
11604;SDS011;5858;43.076;25.626;2023-09-30T08:44:23;11.00;;;5.20;;
11604;SDS011;5858;43.076;25.626;2023-09-30T08:46:50;11.93;;;5.10;;
11604;SDS011;5858;43.076;25.626;2023-09-30T08:49:18;7.95;;;4.82;;
11604;SDS011;5858;43.076;25.626;2023-09-30T08:51:49;19.90;;;5.22;;
11604;SDS011;5858;43.076;25.626;2023-09-30T08:54:17;11.15;;;6.10;;
11604;SDS011;5858;43.076;25.626;2023-09-30T08:56:45;9.52;;;5.30;;
11604;SDS011;5858;43.076;25.626;2023-09-30T08:59:14;25.92;;;9.75;;
11604;SDS011;5858;43.076;25.626;2023-09-30T09:01:42;15.73;;;8.13;;
11604;SDS011;5858;43.076;25.626;2023-09-30T09:04:09;25.48;;;12.25;;
11604;SDS011;5858;43.076;25.626;2023-09-30T09:06:37;20.50;;;10.32;;
11604;SDS011;5858;43.076;25.626;2023-09-30T09:09:15;29.08;;;12.55;;
11604;SDS011;5858;43.076;25.626;2023-09-30T09:11:43;28.63;;;13.52;;
11604;SDS011;5858;43.076;25.626;2023-09-30T09:14:10;18.65;;;6.40;;
11604;SDS011;5858;43.076;25.626;2023-09-30T09:16:50;14.02;;;6.88;;
11604;SDS011;5858;43.076;25.626;2023-09-30T09:19:19;12.15;;;5.25;;
11604;SDS011;5858;43.076;25.626;2023-09-30T09:21:53;14.23;;;5.20;;
11604;SDS011;5858;43.076;25.626;2023-09-30T09:24:30;9.70;;;4.97;;
11604;SDS011;5858;43.076;25.626;2023-09-30T09:27:07;11.68;;;5.05;;
11604;SDS011;5858;43.076;25.626;2023-09-30T09:29:34;13.40;;;5.07;;
11604;SDS011;5858;43.076;25.626;2023-09-30T09:32:11;8.93;;;4.45;;
11604;SDS011;5858;43.076;25.626;2023-09-30T09:34:39;12.68;;;4.55;;
11604;SDS011;5858;43.076;25.626;2023-09-30T09:37:12;9.43;;;4.68;;
11604;SDS011;5858;43.076;25.626;2023-09-30T09:39:45;7.53;;;4.90;;
11604;SDS011;5858;43.076;25.626;2023-09-30T09:42:27;13.38;;;5.15;;
11604;SDS011;5858;43.076;25.626;2023-09-30T09:44:56;7.38;;;4.95;;
11604;SDS011;5858;43.076;25.626;2023-09-30T09:47:24;12.77;;;5.20;;
11604;SDS011;5858;43.076;25.626;2023-09-30T09:49:51;8.80;;;5.10;;
11604;SDS011;5858;43.076;25.626;2023-09-30T09:52:19;5.70;;;4.28;;
11604;SDS011;5858;43.076;25.626;2023-09-30T09:54:48;6.40;;;4.03;;
11604;SDS011;5858;43.076;25.626;2023-09-30T09:57:17;10.57;;;4.85;;
11604;SDS011;5858;43.076;25.626;2023-09-30T09:59:45;11.88;;;4.55;;
11604;SDS011;5858;43.076;25.626;2023-09-30T10:02:14;6.80;;;4.65;;
11604;SDS011;5858;43.076;25.626;2023-09-30T10:04:43;7.20;;;4.55;;
11604;SDS011;5858;43.076;25.626;2023-09-30T10:07:12;10.60;;;4.82;;
11604;SDS011;5858;43.076;25.626;2023-09-30T10:09:46;8.63;;;4.60;;
11604;SDS011;5858;43.076;25.626;2023-09-30T10:12:17;11.80;;;5.25;;
11604;SDS011;5858;43.076;25.626;2023-09-30T10:14:46;8.25;;;5.03;;
11604;SDS011;5858;43.076;25.626;2023-09-30T10:17:13;10.07;;;5.00;;
11604;SDS011;5858;43.076;25.626;2023-09-30T10:22:33;6.80;;;4.68;;
11604;SDS011;5858;43.076;25.626;2023-09-30T10:25:01;10.95;;;5.00;;
11604;SDS011;5858;43.076;25.626;2023-09-30T10:28:00;8.27;;;4.13;;
11604;SDS011;5858;43.076;25.626;2023-09-30T10:31:09;6.88;;;4.70;;
11604;SDS011;5858;43.076;25.626;2023-09-30T10:36:44;11.80;;;4.97;;
11604;SDS011;5858;43.076;25.626;2023-09-30T10:39:13;6.70;;;4.88;;
11604;SDS011;5858;43.076;25.626;2023-09-30T10:41:50;9.95;;;4.43;;
11604;SDS011;5858;43.076;25.626;2023-09-30T10:44:33;9.35;;;5.15;;
11604;SDS011;5858;43.076;25.626;2023-09-30T10:47:00;6.50;;;5.03;;
11604;SDS011;5858;43.076;25.626;2023-09-30T10:50:03;9.23;;;4.72;;
11604;SDS011;5858;43.076;25.626;2023-09-30T10:53:09;10.50;;;4.75;;
11604;SDS011;5858;43.076;25.626;2023-09-30T10:55:36;8.02;;;5.20;;
11604;SDS011;5858;43.076;25.626;2023-09-30T10:58:05;5.32;;;4.57;;
11604;SDS011;5858;43.076;25.626;2023-09-30T11:00:32;10.40;;;4.43;;
11604;SDS011;5858;43.076;25.626;2023-09-30T11:02:59;8.15;;;4.78;;
11604;SDS011;5858;43.076;25.626;2023-09-30T11:05:27;6.43;;;4.30;;
11604;SDS011;5858;43.076;25.626;2023-09-30T11:07:54;12.88;;;4.93;;
11604;SDS011;5858;43.076;25.626;2023-09-30T11:10:24;7.53;;;5.00;;
11604;SDS011;5858;43.076;25.626;2023-09-30T11:12:55;9.02;;;5.10;;
11604;SDS011;5858;43.076;25.626;2023-09-30T11:15:24;10.23;;;4.82;;
11604;SDS011;5858;43.076;25.626;2023-09-30T11:17:52;10.52;;;4.75;;
11604;SDS011;5858;43.076;25.626;2023-09-30T11:20:20;7.38;;;4.68;;
11604;SDS011;5858;43.076;25.626;2023-09-30T11:22:47;7.13;;;4.40;;
11604;SDS011;5858;43.076;25.626;2023-09-30T11:25:16;5.00;;;4.50;;
11604;SDS011;5858;43.076;25.626;2023-09-30T11:27:44;5.90;;;4.57;;
11604;SDS011;5858;43.076;25.626;2023-09-30T11:30:12;9.20;;;4.68;;
11604;SDS011;5858;43.076;25.626;2023-09-30T11:32:41;8.63;;;4.80;;
11604;SDS011;5858;43.076;25.626;2023-09-30T11:35:09;7.15;;;4.68;;
11604;SDS011;5858;43.076;25.626;2023-09-30T11:37:37;8.45;;;4.70;;
11604;SDS011;5858;43.076;25.626;2023-09-30T11:40:11;7.57;;;4.78;;
11604;SDS011;5858;43.076;25.626;2023-09-30T11:42:39;6.97;;;5.30;;
11604;SDS011;5858;43.076;25.626;2023-09-30T11:47:50;11.20;;;4.55;;
11604;SDS011;5858;43.076;25.626;2023-09-30T11:50:17;7.78;;;4.90;;
11604;SDS011;5858;43.076;25.626;2023-09-30T11:52:44;6.70;;;4.90;;
11604;SDS011;5858;43.076;25.626;2023-09-30T11:55:12;7.95;;;5.20;;
11604;SDS011;5858;43.076;25.626;2023-09-30T11:57:41;10.13;;;4.80;;
11604;SDS011;5858;43.076;25.626;2023-09-30T12:00:09;7.63;;;5.50;;
11604;SDS011;5858;43.076;25.626;2023-09-30T12:02:39;11.07;;;5.38;;
11604;SDS011;5858;43.076;25.626;2023-09-30T12:05:08;10.27;;;5.05;;
11604;SDS011;5858;43.076;25.626;2023-09-30T12:07:37;8.77;;;4.68;;
11604;SDS011;5858;43.076;25.626;2023-09-30T12:10:06;10.27;;;5.03;;
11604;SDS011;5858;43.076;25.626;2023-09-30T12:12:34;8.27;;;4.82;;
11604;SDS011;5858;43.076;25.626;2023-09-30T12:15:00;6.85;;;4.72;;
11604;SDS011;5858;43.076;25.626;2023-09-30T12:17:28;10.15;;;4.97;;
11604;SDS011;5858;43.076;25.626;2023-09-30T12:19:55;8.18;;;4.88;;
11604;SDS011;5858;43.076;25.626;2023-09-30T12:22:23;6.18;;;4.50;;
11604;SDS011;5858;43.076;25.626;2023-09-30T12:24:50;9.20;;;4.65;;
11604;SDS011;5858;43.076;25.626;2023-09-30T12:27:17;9.40;;;4.85;;
11604;SDS011;5858;43.076;25.626;2023-09-30T12:29:44;16.10;;;4.93;;
11604;SDS011;5858;43.076;25.626;2023-09-30T12:32:13;9.57;;;5.38;;
11604;SDS011;5858;43.076;25.626;2023-09-30T12:34:40;10.48;;;5.30;;
11604;SDS011;5858;43.076;25.626;2023-09-30T12:37:07;7.00;;;4.38;;
11604;SDS011;5858;43.076;25.626;2023-09-30T12:39:35;10.07;;;4.25;;
11604;SDS011;5858;43.076;25.626;2023-09-30T12:42:02;6.15;;;4.57;;
11604;SDS011;5858;43.076;25.626;2023-09-30T12:44:33;6.30;;;4.45;;
11604;SDS011;5858;43.076;25.626;2023-09-30T12:47:00;6.13;;;4.53;;
11604;SDS011;5858;43.076;25.626;2023-09-30T12:49:28;5.85;;;4.25;;
11604;SDS011;5858;43.076;25.626;2023-09-30T12:51:55;5.97;;;4.50;;
11604;SDS011;5858;43.076;25.626;2023-09-30T12:54:23;11.98;;;5.25;;
11604;SDS011;5858;43.076;25.626;2023-09-30T12:56:52;7.68;;;4.57;;
11604;SDS011;5858;43.076;25.626;2023-09-30T12:59:19;9.93;;;4.47;;
11604;SDS011;5858;43.076;25.626;2023-09-30T13:01:49;5.03;;;4.53;;
11604;SDS011;5858;43.076;25.626;2023-09-30T13:04:16;8.13;;;4.70;;
11604;SDS011;5858;43.076;25.626;2023-09-30T13:06:44;7.40;;;4.72;;
11604;SDS011;5858;43.076;25.626;2023-09-30T13:09:11;6.55;;;4.35;;
11604;SDS011;5858;43.076;25.626;2023-09-30T13:11:38;6.28;;;5.03;;
11604;SDS011;5858;43.076;25.626;2023-09-30T13:14:08;8.43;;;5.35;;
11604;SDS011;5858;43.076;25.626;2023-09-30T13:16:36;10.18;;;5.10;;
11604;SDS011;5858;43.076;25.626;2023-09-30T13:19:03;9.27;;;5.00;;
11604;SDS011;5858;43.076;25.626;2023-09-30T13:21:30;8.30;;;4.22;;
11604;SDS011;5858;43.076;25.626;2023-09-30T13:23:58;9.05;;;4.35;;
11604;SDS011;5858;43.076;25.626;2023-09-30T13:26:25;8.30;;;4.82;;
11604;SDS011;5858;43.076;25.626;2023-09-30T13:28:52;5.28;;;4.88;;
11604;SDS011;5858;43.076;25.626;2023-09-30T13:31:20;6.97;;;4.65;;
11604;SDS011;5858;43.076;25.626;2023-09-30T13:33:47;11.35;;;4.90;;
11604;SDS011;5858;43.076;25.626;2023-09-30T13:36:14;8.70;;;4.95;;
11604;SDS011;5858;43.076;25.626;2023-09-30T13:38:42;10.43;;;5.30;;
11604;SDS011;5858;43.076;25.626;2023-09-30T13:41:09;9.10;;;4.85;;
11604;SDS011;5858;43.076;25.626;2023-09-30T13:43:36;7.78;;;5.22;;
11604;SDS011;5858;43.076;25.626;2023-09-30T13:46:04;12.07;;;4.90;;
11604;SDS011;5858;43.076;25.626;2023-09-30T13:48:33;10.07;;;5.63;;
11604;SDS011;5858;43.076;25.626;2023-09-30T13:51:03;9.88;;;5.07;;
11604;SDS011;5858;43.076;25.626;2023-09-30T13:53:31;10.02;;;5.43;;
11604;SDS011;5858;43.076;25.626;2023-09-30T13:55:58;7.88;;;5.07;;
11604;SDS011;5858;43.076;25.626;2023-09-30T13:58:25;11.65;;;5.32;;
11604;SDS011;5858;43.076;25.626;2023-09-30T14:00:51;7.10;;;5.18;;
11604;SDS011;5858;43.076;25.626;2023-09-30T14:03:18;9.50;;;5.10;;
11604;SDS011;5858;43.076;25.626;2023-09-30T14:05:47;13.32;;;5.97;;
11604;SDS011;5858;43.076;25.626;2023-09-30T14:08:14;8.23;;;5.45;;
11604;SDS011;5858;43.076;25.626;2023-09-30T14:10:41;7.93;;;5.35;;
11604;SDS011;5858;43.076;25.626;2023-09-30T14:13:09;6.97;;;5.38;;
11604;SDS011;5858;43.076;25.626;2023-09-30T14:15:36;11.77;;;6.68;;
11604;SDS011;5858;43.076;25.626;2023-09-30T14:18:03;8.88;;;5.22;;
11604;SDS011;5858;43.076;25.626;2023-09-30T14:20:31;13.00;;;6.43;;
11604;SDS011;5858;43.076;25.626;2023-09-30T14:23:00;9.82;;;5.35;;
11604;SDS011;5858;43.076;25.626;2023-09-30T14:25:27;11.00;;;6.03;;
11604;SDS011;5858;43.076;25.626;2023-09-30T14:27:54;7.68;;;5.18;;
11604;SDS011;5858;43.076;25.626;2023-09-30T14:30:21;9.43;;;5.57;;
11604;SDS011;5858;43.076;25.626;2023-09-30T14:32:49;9.80;;;5.50;;
11604;SDS011;5858;43.076;25.626;2023-09-30T14:35:16;6.57;;;5.40;;
11604;SDS011;5858;43.076;25.626;2023-09-30T14:37:43;8.10;;;6.10;;
11604;SDS011;5858;43.076;25.626;2023-09-30T14:40:12;7.45;;;6.05;;
11604;SDS011;5858;43.076;25.626;2023-09-30T14:42:39;10.70;;;5.93;;
11604;SDS011;5858;43.076;25.626;2023-09-30T14:45:07;7.57;;;5.97;;
11604;SDS011;5858;43.076;25.626;2023-09-30T14:47:36;11.77;;;5.60;;
11604;SDS011;5858;43.076;25.626;2023-09-30T14:50:03;10.50;;;5.63;;